KTCL/TCL METAR and TAF weather

Enter ICAO airport designator
Station Type Date Time Source
KTCL METAR 2021/10/20 06:53 UTC NOAA

KTCL 200653Z AUTO 00000KT 9SM CLR 13/12 A3020 RMK AO2 SLP224 T01280122


Station Type Date Time Source
KTCL Decoded METAR 2021/10/20 06:53 UTC NOAA

TUSCALOOSA REGIONAL AIRPORT, AL, United States (KTCL) 33-13N 087-37W
Oct 20, 2021 - 02:53 AM EDT / 2021.10.20 0653 UTC
Wind: Calm:0
Visibility: 9 mile(s):0
Sky conditions: clear
Temperature: 55.0 F (12.8 C)
Dew Point: 54.0 F (12.2 C)
Relative Humidity: 96%
Pressure (altimeter): 30.2 in. Hg (1022 hPa)
ob: KTCL 200653Z AUTO 00000KT 9SM CLR 13/12 A3020 RMK AO2 SLP224 T01280122
cycle: 7

Station Type Date Time Source
KTCL TAF 2021/10/20 06:28 UTC NOAA

TAF KTCL 200526Z 2006/2106 00000KT P6SM SCT250
TEMPO 2006/2008 4SM BR
FM201600 16006KT P6SM BKN100
FM210000 16002KT P6SM BKN070

Example: see airport list